Manderson, Wyoming
Current Conditions -  °F | °C
As of 12:53 PM on Monday 24 Nov 2014 (Local Time) from KGEY Reporting Station
Broken Clouds Broken Clouds  
Wind Chill: 28°   Ceiling: 11000
Heat Index: 38°   Visibility: 10mi
Dew Point: 21°   Wind: 21mph
Humidity: 51%   Direction: 330°NNW
Pressure: 30.11"   Gusts: 29mph
Location:  44.27°N, 107.96°W
Report Text: KGEY 241953Z AUTO 33018G25KT 10SM BKN110 03/M06 A3011 RMK AO2 PK WND 32029/1939 SLP226 T00331061
Loading
Personal Weather Stations






























Interactive Weather Map New forecast layout! Learn more

10-Day Weather Forecast

Advertisements
Track Severe Weather on mobile